Time;durP1;ratioP1;P1;durP2;ratioP2;P2;SDS_P1;SDS_P2;PMS_P1;PMS_P2;Temp;Humidity;BMP_temperature;BMP_pressure;BME280_temperature;BME280_humidity;BME280_pressure;Samples;Min_cycle;Max_cycle;Signal;HPM_P1;HPM_P2
2023/05/16 00:01:40;;;;;;;;;;;;;;;19.24;66.83;96491.80;627805;226;66643;-58
2023/05/16 00:04:07;;;;;;;;;;;;;;;19.24;66.97;96483.81;627780;226;66839;-58
2023/05/16 00:06:35;;;;;;;;;;;;;;;19.23;66.69;96477.69;627814;226;65152;-58
2023/05/16 00:09:02;;;;;;;;;;;;;;;19.24;66.78;96475.81;627848;226;66684;-58
2023/05/16 00:11:30;;;;;;;;;;;;;;;19.23;66.59;96477.69;627801;226;64355;-58
2023/05/16 00:13:57;;;;;;;;;;;;;;;19.23;66.62;96480.35;627255;226;65010;-58
2023/05/16 00:16:28;;;;;;;;;;;;;;;19.23;66.52;96472.36;627088;226;67253;-58
2023/05/16 00:18:56;;;;;;;;;;;;;;;19.24;66.49;96462.50;627025;226;67691;-58
2023/05/16 00:21:24;;;;;;;;;;;;;;;19.23;66.45;96458.22;622155;226;63759;-58
2023/05/16 00:23:51;;;;;;;;;;;;;;;19.23;66.36;96467.03;627055;226;64465;-58
2023/05/16 00:26:19;;;;;;;;;;;;;;;19.23;65.98;96475.03;627016;226;66795;-58
2023/05/16 00:28:47;;;;;;;;;;;;;;;19.23;65.93;96475.03;627119;226;62660;-58
2023/05/16 00:31:15;;;;;;;;;;;;;;;19.23;66.04;96475.03;626874;226;64503;-58
2023/05/16 00:33:42;;;;;;;;;;;;;;;19.23;66.22;96482.20;627099;225;64794;-59
2023/05/16 00:36:10;;;;;;;;;;;;;;;19.23;66.18;96485.68;627079;225;65009;-59
2023/05/16 00:38:38;;;;;;;;;;;;;;;19.23;66.62;96480.35;626995;226;64809;-59
2023/05/16 00:41:06;;;;;;;;;;;;;;;19.23;66.77;96483.02;627045;226;64563;-59
2023/05/16 00:43:33;;;;;;;;;;;;;;;19.23;67.40;96471.54;627224;225;63717;-58
2023/05/16 00:46:01;;;;;;;;;;;;;;;19.23;67.49;96477.69;626951;226;65445;-58
2023/05/16 00:48:29;;;;;;;;;;;;;;;19.23;67.30;96466.21;627084;226;66753;-58
2023/05/16 00:50:57;;;;;;;;;;;;;;;19.21;67.22;96458.51;627216;225;62715;-58
2023/05/16 00:53:25;;;;;;;;;;;;;;;19.22;67.21;96454.77;627015;226;67388;-58
2023/05/16 00:55:52;;;;;;;;;;;;;;;19.22;67.11;96454.77;627116;226;65497;-58
2023/05/16 00:58:21;;;;;;;;;;;;;;;19.22;67.12;96457.43;627013;226;62551;-58
2023/05/16 01:00:49;;;;;;;;;;;;;;;19.22;67.13;96445.98;627136;226;67046;-59
2023/05/16 01:03:18;;;;;;;;;;;;;;;19.22;66.93;96452.09;626974;226;67478;-59
2023/05/16 01:05:46;;;;;;;;;;;;;;;19.22;67.04;96446.77;626979;226;63813;-59
2023/05/16 01:08:13;;;;;;;;;;;;;;;19.22;67.38;96448.64;627120;226;67355;-59
2023/05/16 01:10:48;;;;;;;;;;;;;;;19.21;67.39;96447.85;626928;226;64864;-59
2023/05/16 01:13:21;;;;;;;;;;;;;;;19.22;67.16;96448.64;626945;225;65308;-59
2023/05/16 01:15:53;;;;;;;;;;;;;;;19.21;67.13;96447.85;627003;226;67018;-59
2023/05/16 01:18:25;;;;;;;;;;;;;;;19.21;67.14;96447.06;626592;226;66933;-59
2023/05/16 01:20:54;;;;;;;;;;;;;;;19.21;67.08;96447.85;625394;226;62756;-59
2023/05/16 01:23:42;;;;;;;;;;;;;;;19.20;67.00;96446.23;626882;225;67687;-59
2023/05/16 01:26:17;;;;;;;;;;;;;;;19.20;67.03;96440.91;626786;226;66975;-59
2023/05/16 01:28:46;;;;;;;;;;;;;;;19.21;67.09;96444.40;626855;226;65213;-59
2023/05/16 01:31:15;;;;;;;;;;;;;;;19.20;67.46;96451.56;626998;226;65421;-59
2023/05/16 01:33:42;;;;;;;;;;;;;;;19.20;67.26;96438.25;627088;225;67042;-59
2023/05/16 01:36:24;;;;;;;;;;;;;;;19.19;67.32;96439.33;626947;226;64874;-59
2023/05/16 01:38:57;;;;;;;;;;;;;;;19.20;67.37;96434.80;627025;226;67341;-59
2023/05/16 01:41:26;;;;;;;;;;;;;;;19.19;67.16;96439.33;626767;226;64802;-59
2023/05/16 01:43:55;;;;;;;;;;;;;;;19.19;66.96;96444.66;627010;226;65728;-59
2023/05/16 01:46:28;;;;;;;;;;;;;;;19.19;66.74;96434.00;627058;225;64856;-59
2023/05/16 01:49:00;;;;;;;;;;;;;;;19.18;66.82;96436.92;626990;226;66733;-59
2023/05/16 01:51:29;;;;;;;;;;;;;;;19.20;66.71;96437.45;626859;226;64944;-59
2023/05/16 01:54:00;;;;;;;;;;;;;;;19.18;66.71;96432.42;626905;226;67390;-59
2023/05/16 01:56:28;;;;;;;;;;;;;;;19.18;66.59;96442.25;627045;225;67157;-59
2023/05/16 01:58:58;;;;;;;;;;;;;;;19.18;66.94;96437.75;627050;226;62784;-59
2023/05/16 02:01:25;;;;;;;;;;;;;;;19.18;66.36;96443.08;626999;226;67236;-59
2023/05/16 02:03:53;;;;;;;;;;;;;;;19.19;67.10;96447.32;626980;226;67330;-59
2023/05/16 02:06:21;;;;;;;;;;;;;;;19.19;66.67;96442.00;627119;226;65087;-59
2023/05/16 02:08:49;;;;;;;;;;;;;;;19.18;66.71;96429.75;626762;226;67262;-59
2023/05/16 02:11:18;;;;;;;;;;;;;;;19.18;66.93;96434.27;627006;226;64718;-59
2023/05/16 02:13:45;;;;;;;;;;;;;;;19.18;66.81;96434.27;627443;225;65044;-59
2023/05/16 02:16:13;;;;;;;;;;;;;;;19.18;66.99;96429.75;627564;226;67241;-59
2023/05/16 02:18:41;;;;;;;;;;;;;;;19.17;66.92;96430.81;622434;226;70644;-59
2023/05/16 02:21:09;;;;;;;;;;;;;;;19.18;67.26;96436.92;627693;226;62798;-59
2023/05/16 02:23:36;;;;;;;;;;;;;;;19.18;67.12;96432.42;627738;226;67017;-59
2023/05/16 02:26:04;;;;;;;;;;;;;;;19.18;67.16;96434.27;627568;226;64851;-59
2023/05/16 02:28:31;;;;;;;;;;;;;;;19.18;67.09;96437.75;627673;226;64835;-59
2023/05/16 02:31:00;;;;;;;;;;;;;;;19.18;66.73;96427.09;627657;226;67194;-59
2023/05/16 02:33:28;;;;;;;;;;;;;;;19.18;66.89;96431.59;627684;225;66981;-59
2023/05/16 02:35:56;;;;;;;;;;;;;;;19.18;67.48;96436.92;627707;226;63119;-59
2023/05/16 02:38:25;;;;;;;;;;;;;;;19.19;67.35;96435.88;627757;226;44792;-59
2023/05/16 02:40:52;;;;;;;;;;;;;;;19.18;67.55;96439.59;627483;225;64695;-59
2023/05/16 02:43:21;;;;;;;;;;;;;;;19.18;67.46;96420.94;627551;226;65924;-59
2023/05/16 02:45:49;;;;;;;;;;;;;;;19.17;67.16;96420.16;627669;226;67285;-59
2023/05/16 02:48:17;;;;;;;;;;;;;;;19.17;67.26;96428.14;627771;226;67563;-60
2023/05/16 02:50:45;;;;;;;;;;;;;;;19.17;67.09;96424.69;627749;226;62740;-59
2023/05/16 02:53:12;;;;;;;;;;;;;;;19.16;66.76;96429.22;627797;225;68488;-59
2023/05/16 02:55:40;;;;;;;;;;;;;;;19.17;66.74;96424.69;627588;226;66996;-59
2023/05/16 02:58:07;;;;;;;;;;;;;;;19.17;67.04;96422.81;627772;226;65012;-59
2023/05/16 03:00:35;;;;;;;;;;;;;;;19.17;67.08;96433.47;627750;226;67199;-59
2023/05/16 03:03:03;;;;;;;;;;;;;;;19.17;67.38;96444.13;627843;225;66965;-59
2023/05/16 03:05:30;;;;;;;;;;;;;;;19.17;67.45;96436.13;627805;225;62826;-59
2023/05/16 03:07:58;;;;;;;;;;;;;;;19.16;67.17;96429.22;627703;226;67278;-59
2023/05/16 03:10:26;;;;;;;;;;;;;;;19.16;67.05;96439.88;627740;226;67795;-59
2023/05/16 03:12:53;;;;;;;;;;;;;;;19.16;67.33;96439.88;627553;224;64869;-59
2023/05/16 03:15:22;;;;;;;;;;;;;;;19.16;67.12;96455.07;627120;226;65835;-59
2023/05/16 03:17:49;;;;;;;;;;;;;;;19.16;67.43;96431.89;627128;225;64634;-59
2023/05/16 03:20:18;;;;;;;;;;;;;;;19.16;66.97;96447.08;627105;226;62886;-59
2023/05/16 03:22:45;;;;;;;;;;;;;;;19.16;67.30;96445.20;627081;226;67978;-59
2023/05/16 03:25:12;;;;;;;;;;;;;;;19.16;67.04;96436.42;626925;226;66668;-59
2023/05/16 03:27:40;;;;;;;;;;;;;;;19.15;66.56;96454.28;627115;226;64464;-59
2023/05/16 03:30:08;;;;;;;;;;;;;;;19.17;67.12;96451.33;627079;225;66971;-59
2023/05/16 03:32:37;;;;;;;;;;;;;;;19.15;67.02;96454.28;626956;226;67402;-59
2023/05/16 03:35:05;;;;;;;;;;;;;;;19.16;67.59;96447.08;627057;226;63050;-59
2023/05/16 03:37:32;;;;;;;;;;;;;;;19.15;67.06;96442.80;627095;226;67129;-59
2023/05/16 03:40:01;;;;;;;;;;;;;;;19.15;67.16;96454.28;627102;226;66918;-59
2023/05/16 03:42:28;;;;;;;;;;;;;;;19.15;67.42;96459.61;627077;225;65971;-59
2023/05/16 03:44:56;;;;;;;;;;;;;;;19.15;67.07;96453.45;627014;226;67187;-60
2023/05/16 03:47:23;;;;;;;;;;;;;;;19.16;67.11;96452.41;627045;225;66613;-59
2023/05/16 03:49:52;;;;;;;;;;;;;;;19.14;67.52;96460.66;627148;226;62965;-60
2023/05/16 03:52:19;;;;;;;;;;;;;;;19.15;67.24;96464.93;627169;225;66670;-59
2023/05/16 03:54:47;;;;;;;;;;;;;;;19.15;67.41;96470.26;627036;226;67000;-59
2023/05/16 03:57:15;;;;;;;;;;;;;;;19.14;67.06;96476.63;627089;226;65011;-59
2023/05/16 03:59:43;;;;;;;;;;;;;;;19.14;66.87;96481.17;627107;226;67156;-59
2023/05/16 04:02:10;;;;;;;;;;;;;;;19.14;67.04;96476.63;627106;226;64715;-59
2023/05/16 04:04:38;;;;;;;;;;;;;;;19.15;66.98;96474.77;626983;226;63043;-60
2023/05/16 04:07:06;;;;;;;;;;;;;;;19.14;67.07;96473.97;627102;225;64946;-59
2023/05/16 04:09:33;;;;;;;;;;;;;;;19.14;67.52;96484.63;627093;225;64597;-59
2023/05/16 04:12:02;;;;;;;;;;;;;;;19.14;67.37;96481.17;627086;226;63001;-60
2023/05/16 04:14:29;;;;;;;;;;;;;;;19.14;67.39;96489.16;627085;225;65472;-60
2023/05/16 04:16:59;;;;;;;;;;;;;;;19.13;67.18;96485.70;626966;226;64912;-59
2023/05/16 04:19:26;;;;;;;;;;;;;;;19.14;67.02;96495.28;626951;226;65033;-59
2023/05/16 04:21:54;;;;;;;;;;;;;;;19.13;66.92;96487.58;627045;226;67304;-60
2023/05/16 04:24:25;;;;;;;;;;;;;;;19.13;67.07;96483.05;627009;226;64996;-60
2023/05/16 04:26:51;;;;;;;;;;;;;;;19.13;66.81;96482.25;627008;226;65035;-60
2023/05/16 04:29:18;;;;;;;;;;;;;;;19.12;66.83;96481.43;627087;226;67889;-60
2023/05/16 04:31:46;;;;;;;;;;;;;;;19.13;66.76;96499.02;627004;226;67043;-60
2023/05/16 04:34:14;;;;;;;;;;;;;;;19.13;67.00;96487.58;627054;225;65032;-59
2023/05/16 04:36:42;;;;;;;;;;;;;;;19.13;66.83;96493.70;627068;226;67168;-60
2023/05/16 04:39:09;;;;;;;;;;;;;;;19.13;66.69;96492.91;627104;225;66633;-60
2023/05/16 04:41:37;;;;;;;;;;;;;;;19.12;66.53;96481.43;627108;225;65341;-60
2023/05/16 04:44:05;;;;;;;;;;;;;;;19.13;66.98;96480.37;627176;225;67154;-60
2023/05/16 04:46:32;;;;;;;;;;;;;;;19.13;66.99;96477.72;627187;225;65228;-60
2023/05/16 04:49:00;;;;;;;;;;;;;;;19.12;67.04;96481.43;627076;226;63839;-60
2023/05/16 04:51:27;;;;;;;;;;;;;;;19.13;67.34;96482.25;627015;225;64871;-60
2023/05/16 04:53:55;;;;;;;;;;;;;;;19.12;67.11;96481.43;626919;226;64981;-60
2023/05/16 04:56:22;;;;;;;;;;;;;;;19.13;67.32;96482.25;626995;226;62924;-60
2023/05/16 04:58:50;;;;;;;;;;;;;;;19.13;67.32;96487.58;627093;226;67144;-60
2023/05/16 05:01:17;;;;;;;;;;;;;;;19.12;67.24;96480.64;627103;226;67036;-60
2023/05/16 05:03:45;;;;;;;;;;;;;;;19.11;67.46;96479.84;627046;226;65262;-60
2023/05/16 05:06:12;;;;;;;;;;;;;;;19.12;67.09;96494.75;627071;226;66773;-60
2023/05/16 05:08:40;;;;;;;;;;;;;;;19.12;67.46;96497.41;626951;226;67260;-60
2023/05/16 05:11:07;;;;;;;;;;;;;;;19.12;67.23;96491.29;627047;225;65055;-60
2023/05/16 05:13:37;;;;;;;;;;;;;;;19.11;67.21;96501.16;627453;225;65114;-60
2023/05/16 05:16:04;;;;;;;;;;;;;;;19.12;67.12;96504.61;627559;226;66979;-60
2023/05/16 05:18:32;;;;;;;;;;;;;;;19.11;67.17;96501.16;627640;226;65011;-60
2023/05/16 05:21:01;;;;;;;;;;;;;;;19.11;67.05;96495.83;627628;226;67163;-60
2023/05/16 05:23:29;;;;;;;;;;;;;;;19.11;66.99;96498.49;627622;226;64754;-60
2023/05/16 05:25:56;;;;;;;;;;;;;;;19.11;67.06;96500.36;627716;226;63040;-60
2023/05/16 05:28:24;;;;;;;;;;;;;;;19.11;66.85;96519.00;627742;226;64730;-60
2023/05/16 05:30:53;;;;;;;;;;;;;;;19.10;66.74;96510.22;627604;226;64917;-60
2023/05/16 05:33:28;;;;;;;;;;;;;;;19.11;67.01;96511.02;627740;226;46203;-60
2023/05/16 05:35:55;;;;;;;;;;;;;;;19.10;67.13;96507.56;627659;225;67207;-60
2023/05/16 05:38:23;;;;;;;;;;;;;;;19.11;67.25;96503.02;627554;226;64941;-60
2023/05/16 05:40:52;;;;;;;;;;;;;;;19.10;66.83;96509.40;627748;226;45977;-60
2023/05/16 05:43:20;;;;;;;;;;;;;;;19.10;66.82;96504.90;627690;226;64984;-60
2023/05/16 05:45:47;;;;;;;;;;;;;;;19.10;67.03;96509.40;627616;226;65632;-60
2023/05/16 05:48:16;;;;;;;;;;;;;;;19.10;67.03;96504.90;627712;226;65025;-60
2023/05/16 05:50:44;;;;;;;;;;;;;;;19.09;66.82;96503.28;627688;226;67208;-60
2023/05/16 05:53:17;;;;;;;;;;;;;;;19.10;66.83;96504.90;627751;226;47987;-60
2023/05/16 05:55:46;;;;;;;;;;;;;;;19.10;66.64;96514.73;627660;226;65111;-60
2023/05/16 05:58:13;;;;;;;;;;;;;;;19.09;66.86;96508.61;627559;226;67251;-61
2023/05/16 06:00:42;;;;;;;;;;;;;;;19.10;67.04;96510.22;627618;226;67389;-60
2023/05/16 06:03:10;;;;;;;;;;;;;;;19.10;66.81;96504.08;627573;226;65040;-60
2023/05/16 06:05:37;;;;;;;;;;;;;;;19.09;67.34;96505.95;627752;225;67206;-61
2023/05/16 06:08:05;;;;;;;;;;;;;;;19.08;67.61;96502.48;627750;226;67066;-60
2023/05/16 06:10:32;;;;;;;;;;;;;;;19.07;64.85;96495.58;627686;225;65027;-60
2023/05/16 06:13:00;;;;;;;;;;;;;;;19.07;65.35;96506.23;627554;226;67245;-60
2023/05/16 06:15:27;;;;;;;;;;;;;;;19.08;65.43;96497.16;627709;226;66985;-60
2023/05/16 06:17:55;;;;;;;;;;;;;;;19.08;66.11;96504.36;627576;226;65023;-60
2023/05/16 06:20:22;;;;;;;;;;;;;;;19.10;63.69;96490.76;627802;225;66800;-60
2023/05/16 06:22:50;;;;;;;;;;;;;;;19.11;67.69;96501.16;627653;226;67111;-60
2023/05/16 06:25:17;;;;;;;;;;;;;;;19.10;65.81;96507.56;627682;225;65098;-61
2023/05/16 06:27:45;;;;;;;;;;;;;;;19.11;65.44;96497.70;627653;226;67447;-62
2023/05/16 06:30:12;;;;;;;;;;;;;;;19.10;66.29;96499.56;627484;226;67007;-60
2023/05/16 06:32:40;;;;;;;;;;;;;;;19.11;67.02;96506.48;626332;226;62998;-61
2023/05/16 06:35:08;;;;;;;;;;;;;;;19.12;66.31;96502.73;621367;226;67027;-60
2023/05/16 06:37:36;;;;;;;;;;;;;;;19.11;66.71;96501.16;627376;226;67010;-61
2023/05/16 06:40:04;;;;;;;;;;;;;;;19.12;66.96;96505.41;627537;226;62891;-60
2023/05/16 06:42:32;;;;;;;;;;;;;;;19.13;67.27;96496.36;627746;226;67155;-60
2023/05/16 06:44:59;;;;;;;;;;;;;;;19.13;67.57;96493.70;627735;226;67020;-60
2023/05/16 06:47:27;;;;;;;;;;;;;;;19.13;67.41;96491.03;627769;226;64970;-60
2023/05/16 06:49:55;;;;;;;;;;;;;;;19.12;67.19;96494.75;627517;226;67328;-60
2023/05/16 06:52:23;;;;;;;;;;;;;;;19.13;65.63;96476.92;627477;226;65027;-60
2023/05/16 06:54:50;;;;;;;;;;;;;;;19.13;64.22;96464.40;627591;225;62984;-60
2023/05/16 06:57:18;;;;;;;;;;;;;;;19.14;65.74;96467.86;627667;226;67216;-60
2023/05/16 06:59:46;;;;;;;;;;;;;;;19.13;61.94;96475.05;627698;226;67013;-61
2023/05/16 07:02:13;;;;;;;;;;;;;;;19.16;66.11;96481.70;627431;226;65610;-60
2023/05/16 07:04:41;;;;;;;;;;;;;;;19.16;66.58;96479.05;622100;226;64863;-60
2023/05/16 07:07:09;;;;;;;;;;;;;;;19.15;65.72;96474.77;617302;230;66859;-60
2023/05/16 07:09:37;;;;;;;;;;;;;;;19.15;63.87;96480.09;617158;228;65033;-61
2023/05/16 07:12:05;;;;;;;;;;;;;;;19.17;66.32;96478.75;617275;230;67158;-59
2023/05/16 07:14:32;;;;;;;;;;;;;;;19.18;66.35;96476.88;613161;231;67385;-59
2023/05/16 07:17:00;;;;;;;;;;;;;;;19.16;66.37;96479.83;613270;231;65191;-59
2023/05/16 07:19:27;;;;;;;;;;;;;;;19.17;67.28;96480.63;613140;231;67177;-59
2023/05/16 07:21:55;;;;;;;;;;;;;;;19.17;67.42;96477.96;613852;231;67215;-59
2023/05/16 07:24:22;;;;;;;;;;;;;;;19.17;67.42;96483.28;614510;230;65098;-59
2023/05/16 07:26:50;;;;;;;;;;;;;;;19.16;67.40;96495.81;614353;231;67583;-59
2023/05/16 07:29:18;;;;;;;;;;;;;;;19.17;67.39;96494.73;614430;231;64933;-59
2023/05/16 07:31:45;;;;;;;;;;;;;;;19.16;62.59;96498.48;614513;231;62959;-59
2023/05/16 07:34:13;;;;;;;;;;;;;;;19.16;65.29;96519.78;614414;231;64627;-59
2023/05/16 07:36:40;;;;;;;;;;;;;;;19.17;66.60;96510.72;614481;230;66852;-59
2023/05/16 07:39:08;;;;;;;;;;;;;;;19.16;66.24;96503.80;614392;231;65026;-59
2023/05/16 07:41:35;;;;;;;;;;;;;;;19.15;66.32;96502.22;614387;231;67631;-59
2023/05/16 07:44:02;;;;;;;;;;;;;;;19.16;66.09;96501.14;614461;230;66981;-59
2023/05/16 07:46:30;;;;;;;;;;;;;;;19.17;67.02;96504.59;614305;231;65274;-59
2023/05/16 07:48:57;;;;;;;;;;;;;;;19.15;66.94;96496.89;614511;231;67025;-59
2023/05/16 07:51:25;;;;;;;;;;;;;;;19.16;67.41;96495.81;613966;231;67082;-59
2023/05/16 07:53:52;;;;;;;;;;;;;;;19.16;67.52;96497.69;613755;231;65124;-59
2023/05/16 07:56:20;;;;;;;;;;;;;;;19.15;66.83;96491.56;614314;231;66980;-59
2023/05/16 07:58:48;;;;;;;;;;;;;;;19.16;67.22;96503.80;614500;230;66828;-59
2023/05/16 08:01:15;;;;;;;;;;;;;;;19.15;67.80;96496.89;614504;231;62964;-59
2023/05/16 08:03:43;;;;;;;;;;;;;;;19.15;67.49;96494.23;614440;231;64302;-59
2023/05/16 08:06:10;;;;;;;;;;;;;;;19.15;67.32;96483.58;614457;231;64796;-58
2023/05/16 08:08:38;;;;;;;;;;;;;;;19.15;67.14;96486.23;614350;229;63037;-60
2023/05/16 08:11:06;;;;;;;;;;;;;;;19.16;67.23;96500.34;614378;231;66887;-59
2023/05/16 08:13:33;;;;;;;;;;;;;;;19.15;66.79;96509.39;619366;227;66690;-58
2023/05/16 08:16:00;;;;;;;;;;;;;;;19.15;67.42;96499.56;623086;227;65182;-58
2023/05/16 08:18:28;;;;;;;;;;;;;;;19.16;67.37;96495.02;623137;227;66903;-58
2023/05/16 08:20:55;;;;;;;;;;;;;;;19.16;67.22;96516.33;623141;227;66754;-59
2023/05/16 08:23:23;;;;;;;;;;;;;;;19.16;67.11;96519.78;623061;227;65041;-59
2023/05/16 08:25:50;;;;;;;;;;;;;;;19.15;67.42;96496.89;623074;227;67239;-59
2023/05/16 08:28:18;;;;;;;;;;;;;;;19.16;67.49;96493.16;621266;227;65119;-59
2023/05/16 08:30:46;;;;;;;;;;;;;;;19.16;67.66;96482.50;621228;228;63027;-59
2023/05/16 08:33:14;;;;;;;;;;;;;;;19.16;67.72;96481.70;621221;228;67359;-59
2023/05/16 08:35:42;;;;;;;;;;;;;;;19.16;67.74;96468.39;621242;228;64944;-59
2023/05/16 08:38:10;;;;;;;;;;;;;;;19.16;67.48;96471.84;621138;228;65024;-59
2023/05/16 08:40:39;;;;;;;;;;;;;;;19.16;67.81;96465.72;621279;228;67380;-59
2023/05/16 08:43:07;;;;;;;;;;;;;;;19.16;67.30;96468.39;621192;228;67110;-59
2023/05/16 08:45:35;;;;;;;;;;;;;;;19.15;67.30;96480.91;621244;228;65080;-59
2023/05/16 08:48:04;;;;;;;;;;;;;;;19.15;66.88;96475.59;621216;228;67009;-59
2023/05/16 08:50:32;;;;;;;;;;;;;;;19.17;67.59;96486.74;621247;228;67071;-59
2023/05/16 08:53:01;;;;;;;;;;;;;;;19.17;67.04;96483.28;621224;228;64983;-59
2023/05/16 08:55:28;;;;;;;;;;;;;;;19.16;67.05;96477.17;622387;227;65215;-59
2023/05/16 08:57:56;;;;;;;;;;;;;;;19.16;67.18;96474.51;622407;227;65792;-59
2023/05/16 09:00:24;;;;;;;;;;;;;;;19.17;67.72;96480.63;622771;226;65143;-59
2023/05/16 09:02:53;;;;;;;;;;;;;;;19.17;68.18;96477.96;621154;228;67207;-59
2023/05/16 09:05:22;;;;;;;;;;;;;;;19.17;68.17;96486.74;623132;227;67032;-59
2023/05/16 09:07:50;;;;;;;;;;;;;;;19.16;68.09;96485.16;623830;227;65102;-59
2023/05/16 09:10:18;;;;;;;;;;;;;;;19.18;68.15;96484.88;623825;227;66888;-59
2023/05/16 09:12:45;;;;;;;;;;;;;;;19.17;68.96;96475.30;623799;226;64682;-59
2023/05/16 09:15:13;;;;;;;;;;;;;;;19.17;68.67;96477.96;623838;227;62999;-59
2023/05/16 09:17:42;;;;;;;;;;;;;;;19.17;68.83;96481.42;623801;227;64676;-59
2023/05/16 09:20:11;;;;;;;;;;;;;;;19.18;68.68;96474.22;623837;226;66834;-59
2023/05/16 09:22:38;;;;;;;;;;;;;;;19.17;64.28;96468.09;623763;227;65128;-59
2023/05/16 09:25:06;;;;;;;;;;;;;;;19.19;67.53;96473.95;623809;227;66919;-60
2023/05/16 09:27:34;;;;;;;;;;;;;;;19.18;68.07;96475.04;623823;227;66967;-59
2023/05/16 09:30:02;;;;;;;;;;;;;;;19.18;68.03;96475.04;623812;227;65001;-59
2023/05/16 09:32:31;;;;;;;;;;;;;;;19.17;68.11;96470.77;623824;227;66856;-59
2023/05/16 09:34:59;;;;;;;;;;;;;;;19.18;68.17;96475.04;623802;227;64394;-58
2023/05/16 09:37:26;;;;;;;;;;;;;;;19.17;68.30;96470.77;623826;227;62716;-58
2023/05/16 09:39:54;;;;;;;;;;;;;;;19.19;68.70;96465.17;623757;227;66898;-59
2023/05/16 09:42:22;;;;;;;;;;;;;;;19.18;69.63;96467.05;623801;227;67202;-59
2023/05/16 09:44:50;;;;;;;;;;;;;;;19.17;69.74;96452.11;623866;227;64992;-59
2023/05/16 09:47:18;;;;;;;;;;;;;;;19.17;69.08;96446.00;623813;227;66544;-59
2023/05/16 09:49:47;;;;;;;;;;;;;;;19.18;68.56;96450.24;623798;227;64758;-59
2023/05/16 09:52:15;;;;;;;;;;;;;;;19.17;69.20;96441.46;623833;227;65036;-59
2023/05/16 09:54:43;;;;;;;;;;;;;;;19.17;68.92;96440.67;623846;227;66959;-59
2023/05/16 09:57:10;;;;;;;;;;;;;;;19.17;69.00;96438.01;623813;227;64732;-59
2023/05/16 09:59:38;;;;;;;;;;;;;;;19.17;68.80;96430.02;623914;227;65144;-59
2023/05/16 10:02:07;;;;;;;;;;;;;;;19.18;68.39;96426.27;623810;227;66555;-59
2023/05/16 10:04:35;;;;;;;;;;;;;;;19.17;68.55;96425.48;623801;227;66757;-59
2023/05/16 10:07:03;;;;;;;;;;;;;;;19.18;68.90;96434.27;623780;227;62987;-59
2023/05/16 10:09:33;;;;;;;;;;;;;;;19.18;68.42;96426.27;623797;227;67296;-59
2023/05/16 10:12:05;;;;;;;;;;;;;;;19.17;64.73;96422.03;623753;226;64732;-59
2023/05/16 10:14:36;;;;;;;;;;;;;;;19.21;63.21;96420.42;623776;227;65060;-59
2023/05/16 10:17:05;;;;;;;;;;;;;;;19.24;62.54;96419.88;623820;227;64762;-59
2023/05/16 10:19:34;;;;;;;;;;;;;;;19.24;63.74;96420.66;623859;227;64707;-59
2023/05/16 10:22:03;;;;;;;;;;;;;;;19.25;66.02;96410.80;623848;227;63022;-59
2023/05/16 10:24:38;;;;;;;;;;;;;;;19.24;66.71;96420.66;623767;226;64684;-59
2023/05/16 10:27:06;;;;;;;;;;;;;;;19.23;66.90;96411.09;623693;226;64714;-57
2023/05/16 10:29:33;;;;;;;;;;;;;;;19.23;67.34;96407.61;623675;226;62722;-57
2023/05/16 10:32:02;;;;;;;;;;;;;;;19.23;67.36;96404.94;623432;227;66967;-57
2023/05/16 10:34:30;;;;;;;;;;;;;;;19.23;66.69;96405.77;623458;227;66802;-58
2023/05/16 10:36:58;;;;;;;;;;;;;;;19.23;66.34;96395.11;623448;227;65046;-58
2023/05/16 10:39:26;;;;;;;;;;;;;;;19.24;67.29;96388.70;623463;227;66962;-58
2023/05/16 10:41:53;;;;;;;;;;;;;;;19.23;67.02;96384.45;623462;227;66887;-58
2023/05/16 10:44:21;;;;;;;;;;;;;;;19.23;66.83;96370.31;623450;227;62903;-58
2023/05/16 10:46:48;;;;;;;;;;;;;;;19.24;66.17;96372.72;623437;227;66760;-59
2023/05/16 10:49:25;;;;;;;;;;;;;;;19.23;65.31;96376.46;623476;227;66334;-59
2023/05/16 10:52:03;;;;;;;;;;;;;;;19.24;64.59;96358.61;623460;227;65130;-59
2023/05/16 10:54:38;;;;;;;;;;;;;;;19.26;64.90;96357.27;623503;227;66976;-57
2023/05/16 10:57:07;;;;;;;;;;;;;;;19.25;64.33;96371.63;623380;227;67244;-59
2023/05/16 10:59:36;;;;;;;;;;;;;;;19.26;64.52;96367.09;623110;227;63246;-58
2023/05/16 11:02:05;;;;;;;;;;;;;;;19.27;65.70;96352.72;622526;227;64630;-57
2023/05/16 11:04:44;;;;;;;;;;;;;;;19.26;67.02;96349.27;620701;227;64731;-57
2023/05/16 11:07:11;;;;;;;;;;;;;;;19.25;66.96;96347.66;621078;228;64988;-57
2023/05/16 11:09:40;;;;;;;;;;;;;;;19.26;67.28;96345.78;621273;228;66832;-57
2023/05/16 11:12:09;;;;;;;;;;;;;;;19.25;66.83;96341.54;621160;228;66958;-58
2023/05/16 11:14:46;;;;;;;;;;;;;;;19.25;65.47;96349.53;621208;228;65468;-58
2023/05/16 11:17:13;;;;;;;;;;;;;;;19.25;64.10;96350.32;621201;228;66706;-58
2023/05/16 11:19:49;;;;;;;;;;;;;;;19.26;65.50;96346.61;621136;228;64847;-58
2023/05/16 11:22:21;;;;;;;;;;;;;;;19.26;65.25;96343.94;621232;228;62879;-59
2023/05/16 11:24:50;;;;;;;;;;;;;;;19.26;64.73;96343.94;621283;228;67246;-59
2023/05/16 11:27:22;;;;;;;;;;;;;;;19.27;63.76;96337.53;622539;227;66726;-59
2023/05/16 11:29:50;;;;;;;;;;;;;;;19.29;63.82;96334.60;623847;227;62843;-59
2023/05/16 11:32:20;;;;;;;;;;;;;;;19.27;63.98;96337.53;623871;227;64663;-59
2023/05/16 11:34:49;;;;;;;;;;;;;;;19.28;63.49;96336.45;623738;227;66787;-60
2023/05/16 11:37:17;;;;;;;;;;;;;;;19.28;62.98;96333.78;623894;227;62967;-59
2023/05/16 11:39:45;;;;;;;;;;;;;;;19.29;62.73;96330.06;623878;227;66872;-60
2023/05/16 11:42:13;;;;;;;;;;;;;;;19.29;62.65;96323.95;623850;227;66872;-59
2023/05/16 11:44:41;;;;;;;;;;;;;;;19.29;63.00;96308.75;623828;227;65026;-60
2023/05/16 11:47:08;;;;;;;;;;;;;;;19.30;62.60;96323.66;623225;227;66784;-60
2023/05/16 11:49:37;;;;;;;;;;;;;;;19.32;62.59;96309.28;622405;227;66901;-59
2023/05/16 11:52:05;;;;;;;;;;;;;;;19.30;62.74;96305.00;622567;227;65059;-57
2023/05/16 11:54:33;;;;;;;;;;;;;;;19.32;62.53;96314.61;622807;227;66527;-57
2023/05/16 11:57:03;;;;;;;;;;;;;;;19.32;62.38;96315.39;621980;227;48229;-57
2023/05/16 11:59:30;;;;;;;;;;;;;;;19.32;62.50;96296.75;621229;228;65007;-57
2023/05/16 12:02:00;;;;;;;;;;;;;;;19.31;62.42;96295.14;621288;228;66919;-59
2023/05/16 12:04:28;;;;;;;;;;;;;;;19.32;62.69;96299.41;621318;228;63817;-59
2023/05/16 12:07:04;;;;;;;;;;;;;;;19.33;62.66;96284.22;621289;228;65084;-58
2023/05/16 12:09:28;;;;;;;;;;;;;;;19.32;63.49;96296.75;620927;228;66699;-59
2023/05/16 12:11:56;;;;;;;;;;;;;;;19.32;63.31;96304.74;622066;227;66843;-59
2023/05/16 12:14:24;;;;;;;;;;;;;;;19.33;65.00;96306.32;623047;226;65022;-59
2023/05/16 12:16:52;;;;;;;;;;;;;;;19.32;64.96;96309.28;623212;226;66820;-59
2023/05/16 12:19:21;;;;;;;;;;;;;;;19.32;64.48;96315.39;621908;227;66376;-59
2023/05/16 12:21:51;;;;;;;;;;;;;;;19.32;64.65;96307.41;621284;226;64960;-58
2023/05/16 12:24:18;;;;;;;;;;;;;;;19.31;64.30;96305.80;621090;228;64337;-59
2023/05/16 12:26:46;;;;;;;;;;;;;;;19.33;63.73;96302.87;621258;228;66960;-58
2023/05/16 12:29:13;;;;;;;;;;;;;;;19.32;63.06;96311.95;621275;228;65028;-59
2023/05/16 12:31:41;;;;;;;;;;;;;;;19.33;63.21;96318.85;620826;228;66646;-59
2023/05/16 12:34:15;;;;;;;;;;;;;;;19.33;62.92;96316.19;621628;227;66808;-58
2023/05/16 12:36:43;;;;;;;;;;;;;;;19.34;62.61;96320.44;623786;227;64980;-59
2023/05/16 12:39:12;;;;;;;;;;;;;;;19.35;62.61;96324.71;623686;227;67237;-59
2023/05/16 12:41:41;;;;;;;;;;;;;;;19.35;63.01;96330.03;623795;227;66778;-58
2023/05/16 12:44:18;;;;;;;;;;;;;;;19.34;63.01;96317.77;623654;227;65031;-59
2023/05/16 12:46:48;;;;;;;;;;;;;;;19.34;62.60;96329.22;623730;227;67063;-60
2023/05/16 12:49:15;;;;;;;;;;;;;;;19.34;62.44;96331.09;623771;227;66808;-60
2023/05/16 12:51:44;;;;;;;;;;;;;;;19.34;62.23;96334.55;623818;227;62909;-59
2023/05/16 12:54:12;;;;;;;;;;;;;;;19.35;62.19;96335.36;623511;226;65381;-60